createdAt,value
2018-09-28T00:00:49.918Z,0.70
2018-09-28T00:03:18.618Z,0.60
2018-09-28T00:05:47.259Z,0.60
2018-09-28T00:08:15.944Z,1.00
2018-09-28T00:10:44.438Z,0.50
2018-09-28T00:13:13.050Z,0.30
2018-09-28T00:15:41.498Z,0.40
2018-09-28T00:18:10.081Z,0.53
2018-09-28T00:20:38.652Z,0.60
2018-09-28T00:23:07.145Z,0.63
2018-09-28T00:25:35.750Z,0.37
2018-09-28T00:28:04.210Z,0.70
2018-09-28T00:30:32.822Z,0.63
2018-09-28T00:33:01.339Z,0.60
2018-09-28T00:35:29.813Z,0.70
2018-09-28T00:37:58.314Z,0.90
2018-09-28T00:40:26.822Z,0.47
2018-09-28T00:42:55.630Z,0.50
2018-09-28T00:45:24.098Z,0.57
2018-09-28T00:47:52.742Z,0.53
2018-09-28T00:50:21.382Z,0.50
2018-09-28T00:52:49.877Z,0.80
2018-09-28T00:55:18.597Z,0.47
2018-09-28T00:57:47.090Z,0.40
2018-09-28T01:00:15.758Z,0.57
2018-09-28T01:02:44.297Z,0.30
2018-09-28T01:05:12.881Z,0.60
2018-09-28T01:07:41.502Z,0.60
2018-09-28T01:10:10.170Z,0.47
2018-09-28T01:12:38.706Z,0.60
2018-09-28T01:15:07.314Z,0.40
2018-09-28T01:17:36.078Z,0.40
2018-09-28T01:20:04.653Z,0.30
2018-09-28T01:22:33.282Z,0.23
2018-09-28T01:25:01.808Z,0.33
2018-09-28T01:27:30.317Z,0.20
2018-09-28T01:29:58.794Z,0.17
2018-09-28T01:32:27.508Z,0.30
2018-09-28T01:34:56.362Z,0.40
2018-09-28T01:37:24.838Z,0.30
2018-09-28T01:39:53.470Z,0.30
2018-09-28T01:42:22.078Z,0.17
2018-09-28T01:44:50.629Z,0.20
2018-09-28T01:47:19.182Z,0.43
2018-09-28T01:49:47.737Z,0.30
2018-09-28T01:52:16.482Z,0.20
2018-09-28T01:54:45.110Z,0.30
2018-09-28T01:57:13.879Z,0.37
2018-09-28T01:59:42.382Z,0.30
2018-09-28T02:02:11.094Z,0.47
2018-09-28T02:04:39.536Z,0.40
2018-09-28T02:07:08.140Z,0.20
2018-09-28T02:09:36.730Z,0.27
2018-09-28T02:12:05.318Z,0.20
2018-09-28T02:14:34.107Z,0.50
2018-09-28T02:17:02.570Z,0.30
2018-09-28T02:19:31.188Z,0.20
2018-09-28T02:21:59.937Z,0.30
2018-09-28T02:24:28.449Z,0.20
2018-09-28T02:26:57.146Z,0.20
2018-09-28T02:29:25.583Z,0.20
2018-09-28T02:31:54.275Z,0.50
2018-09-28T02:34:22.849Z,0.20
2018-09-28T02:36:51.620Z,0.20
2018-09-28T02:39:20.238Z,0.20
2018-09-28T02:41:48.842Z,0.20
2018-09-28T02:44:17.354Z,0.20
2018-09-28T02:46:45.862Z,0.30
2018-09-28T02:49:14.668Z,0.20
2018-09-28T02:51:43.183Z,0.20
2018-09-28T02:54:11.847Z,0.20
2018-09-28T02:56:40.405Z,0.10
2018-09-28T02:59:08.899Z,0.20
2018-09-28T03:01:37.509Z,0.30
2018-09-28T03:04:06.146Z,0.10
2018-09-28T03:06:34.734Z,0.20
2018-09-28T03:09:03.386Z,0.27
2018-09-28T03:11:32.052Z,0.20
2018-09-28T03:14:00.525Z,0.30
2018-09-28T03:16:29.186Z,0.40
2018-09-28T03:18:57.747Z,0.20
2018-09-28T03:21:26.346Z,0.10
2018-09-28T03:23:55.116Z,0.30
2018-09-28T03:26:23.596Z,0.10
2018-09-28T03:28:52.306Z,0.20
2018-09-28T03:31:21.171Z,0.17
2018-09-28T03:33:49.736Z,0.30
2018-09-28T03:36:18.264Z,0.20
2018-09-28T03:38:46.822Z,0.10
2018-09-28T03:41:15.642Z,0.17
2018-09-28T03:43:44.291Z,0.30
2018-09-28T03:46:12.926Z,0.20
2018-09-28T03:48:41.442Z,0.20
2018-09-28T03:51:09.966Z,0.23
2018-09-28T03:53:38.578Z,0.20
2018-09-28T03:56:07.148Z,0.20
2018-09-28T03:58:35.838Z,0.10
2018-09-28T04:01:04.378Z,0.27
2018-09-28T04:03:33.198Z,0.30
2018-09-28T04:06:01.744Z,0.30
2018-09-28T04:08:30.330Z,0.13
2018-09-28T04:10:58.921Z,0.20
2018-09-28T04:13:27.404Z,0.30
2018-09-28T04:15:56.176Z,0.20
2018-09-28T04:18:24.624Z,0.30
2018-09-28T04:20:53.311Z,0.10
2018-09-28T04:23:21.810Z,0.30
2018-09-28T04:25:50.401Z,0.30
2018-09-28T04:28:19.162Z,0.23
2018-09-28T04:30:47.625Z,0.30
2018-09-28T04:33:16.154Z,0.20
2018-09-28T04:35:44.650Z,0.30
2018-09-28T04:38:13.408Z,0.40
2018-09-28T04:40:41.922Z,0.20
2018-09-28T04:43:10.487Z,0.30
2018-09-28T04:45:39.027Z,0.10
2018-09-28T04:48:07.593Z,0.20
2018-09-28T04:50:36.168Z,0.30
2018-09-28T04:53:04.674Z,0.30
2018-09-28T04:55:33.749Z,0.20
2018-09-28T04:58:02.200Z,0.33
2018-09-28T05:00:30.912Z,0.33
2018-09-28T05:02:59.474Z,0.50
2018-09-28T05:05:27.994Z,0.20
2018-09-28T05:07:56.620Z,0.17
2018-09-28T05:10:25.204Z,0.30
2018-09-28T05:12:53.836Z,0.30
2018-09-28T05:15:22.318Z,0.33
2018-09-28T05:17:50.919Z,0.27
2018-09-28T05:20:19.501Z,0.40
2018-09-28T05:22:49.417Z,0.30
2018-09-28T05:25:17.918Z,0.30
2018-09-28T05:27:47.355Z,0.40
2018-09-28T05:30:18.266Z,0.30
2018-09-28T05:32:50.678Z,0.47
2018-09-28T05:35:22.493Z,0.40
2018-09-28T05:37:54.770Z,0.30
2018-09-28T05:40:25.894Z,0.30
2018-09-28T05:42:55.838Z,0.40
2018-09-28T05:45:27.687Z,0.40
2018-09-28T05:47:59.405Z,0.30
2018-09-28T05:50:33.159Z,0.60
2018-09-28T05:53:02.922Z,0.40
2018-09-28T05:55:34.078Z,0.30
2018-09-28T05:58:09.063Z,0.40
2018-09-28T06:00:44.730Z,0.60
2018-09-28T06:03:17.737Z,0.40
2018-09-28T06:06:02.907Z,0.43
2018-09-28T06:08:34.743Z,0.50
2018-09-28T06:11:07.125Z,0.40
2018-09-28T06:13:36.517Z,0.40
2018-09-28T06:16:05.102Z,0.50
2018-09-28T06:18:33.788Z,0.57
2018-09-28T06:21:02.383Z,0.20
2018-09-28T06:23:31.046Z,0.40
2018-09-28T06:26:00.386Z,0.50
2018-09-28T06:28:29.081Z,0.60
2018-09-28T06:30:57.590Z,0.50
2018-09-28T06:33:26.218Z,0.40
2018-09-28T06:35:54.868Z,0.30
2018-09-28T06:38:23.430Z,0.30
2018-09-28T06:40:51.998Z,0.30
2018-09-28T06:43:20.490Z,0.43
2018-09-28T06:45:49.173Z,0.33
2018-09-28T06:48:17.672Z,0.30
2018-09-28T06:50:46.268Z,0.20
2018-09-28T06:53:14.924Z,0.33
2018-09-28T06:55:43.421Z,0.27
2018-09-28T06:58:12.118Z,0.17
2018-09-28T07:00:40.778Z,0.30
2018-09-28T07:03:09.534Z,0.20
2018-09-28T07:05:38.066Z,0.23
2018-09-28T07:08:06.724Z,0.20
2018-09-28T07:10:35.312Z,0.30
2018-09-28T07:13:03.925Z,0.10
2018-09-28T07:15:32.530Z,0.20
2018-09-28T07:18:01.139Z,0.50
2018-09-28T07:20:30.221Z,0.20
2018-09-28T07:22:58.878Z,0.20
2018-09-28T07:25:27.622Z,0.13
2018-09-28T07:27:56.285Z,0.30
2018-09-28T07:30:24.867Z,0.47
2018-09-28T07:32:53.480Z,0.23
2018-09-28T07:35:21.978Z,0.40
2018-09-28T07:37:50.844Z,0.20
2018-09-28T07:40:19.434Z,0.20
2018-09-28T07:42:48.242Z,0.20
2018-09-28T07:45:16.734Z,0.20
2018-09-28T07:47:45.736Z,0.20
2018-09-28T07:50:14.393Z,0.20
2018-09-28T07:52:42.922Z,0.10
2018-09-28T07:55:12.098Z,0.20
2018-09-28T07:57:40.692Z,0.20
2018-09-28T08:00:09.478Z,0.10
2018-09-28T08:02:37.953Z,0.17
2018-09-28T08:05:06.786Z,0.27
2018-09-28T08:07:35.330Z,0.20
2018-09-28T08:10:03.882Z,0.10
2018-09-28T08:12:32.454Z,0.20
2018-09-28T08:15:00.961Z,0.20
2018-09-28T08:17:29.759Z,0.20
2018-09-28T08:19:58.502Z,0.10
2018-09-28T08:22:27.493Z,0.13
2018-09-28T08:24:56.007Z,0.10
2018-09-28T08:27:24.843Z,0.30
2018-09-28T08:29:53.315Z,0.20
2018-09-28T08:32:21.827Z,0.20
2018-09-28T08:34:50.486Z,0.20
2018-09-28T08:37:19.031Z,0.10
2018-09-28T08:39:47.882Z,0.10
2018-09-28T08:42:16.635Z,0.10
2018-09-28T08:44:45.338Z,0.13
2018-09-28T08:47:13.936Z,0.10
2018-09-28T08:49:42.525Z,0.10
2018-09-28T08:52:11.110Z,0.20
2018-09-28T08:54:39.582Z,0.20
2018-09-28T08:57:09.250Z,0.10
2018-09-28T08:59:37.774Z,0.10
2018-09-28T09:02:06.683Z,0.03
2018-09-28T09:04:35.230Z,0.10
2018-09-28T09:07:03.942Z,0.10
2018-09-28T09:09:32.442Z,0.10
2018-09-28T09:12:01.126Z,0.07
2018-09-28T09:14:29.682Z,0.20
2018-09-28T09:16:58.130Z,0.10
2018-09-28T09:19:27.779Z,0.20
2018-09-28T09:21:56.246Z,0.30
2018-09-28T09:24:24.903Z,0.13
2018-09-28T09:26:53.398Z,0.20
2018-09-28T09:29:21.943Z,0.10
2018-09-28T09:31:50.588Z,0.20
2018-09-28T09:34:19.103Z,0.03
2018-09-28T09:36:47.949Z,0.20
2018-09-28T09:39:16.559Z,0.00
2018-09-28T09:41:45.610Z,0.20
2018-09-28T09:44:14.207Z,0.20
2018-09-28T09:46:43.120Z,0.30
2018-09-28T09:49:11.750Z,0.20
2018-09-28T09:51:40.279Z,0.10
2018-09-28T09:54:08.747Z,0.20
2018-09-28T09:56:37.274Z,0.20
2018-09-28T09:59:06.198Z,0.13
2018-09-28T10:01:40.276Z,0.03
2018-09-28T10:04:10.440Z,0.20
2018-09-28T10:06:39.342Z,0.20
2018-09-28T10:09:10.858Z,0.20
2018-09-28T10:11:39.814Z,0.10
2018-09-28T10:14:08.398Z,0.10
2018-09-28T10:16:37.085Z,0.20
2018-09-28T10:19:05.550Z,0.10
2018-09-28T10:21:34.059Z,0.10
2018-09-28T10:24:02.833Z,0.10
2018-09-28T10:26:31.302Z,0.20
2018-09-28T10:29:00.106Z,0.10
2018-09-28T10:31:28.685Z,0.10
2018-09-28T10:33:57.608Z,0.10
2018-09-28T10:36:26.086Z,0.10
2018-09-28T10:38:54.706Z,0.10
2018-09-28T10:41:23.304Z,0.10
2018-09-28T10:43:51.905Z,0.20
2018-09-28T10:46:20.847Z,0.10
2018-09-28T10:48:49.359Z,0.10
2018-09-28T10:51:18.286Z,0.10
2018-09-28T10:53:46.749Z,0.20
2018-09-28T10:56:15.250Z,0.20
2018-09-28T10:58:43.736Z,0.20
2018-09-28T11:01:12.409Z,0.10
2018-09-28T11:03:41.320Z,0.10
2018-09-28T11:06:09.722Z,0.10
2018-09-28T11:08:39.073Z,0.10
2018-09-28T11:11:07.618Z,0.20
2018-09-28T11:13:36.350Z,0.17
2018-09-28T11:16:04.983Z,0.10
2018-09-28T11:18:33.803Z,0.10
2018-09-28T11:21:02.324Z,0.17
2018-09-28T11:23:30.937Z,0.30
2018-09-28T11:25:59.734Z,0.20
2018-09-28T11:28:28.206Z,0.20
2018-09-28T11:30:57.066Z,0.20
2018-09-28T11:33:25.737Z,0.10
2018-09-28T11:35:54.813Z,0.10
2018-09-28T11:38:23.418Z,0.20
2018-09-28T11:40:52.170Z,0.27
2018-09-28T11:43:20.795Z,0.10
2018-09-28T11:45:49.471Z,0.13
2018-09-28T11:48:18.051Z,0.20
2018-09-28T11:50:46.680Z,0.17
2018-09-28T11:53:15.578Z,0.20
2018-09-28T11:55:44.909Z,0.17
2018-09-28T11:58:14.330Z,0.10
2018-09-28T12:00:42.842Z,0.10
2018-09-28T12:03:11.476Z,0.10
2018-09-28T12:05:40.020Z,0.20
2018-09-28T12:08:08.604Z,0.10
2018-09-28T12:10:37.496Z,0.20
2018-09-28T12:13:06.180Z,0.20
2018-09-28T12:15:35.001Z,0.10
2018-09-28T12:18:03.446Z,0.10
2018-09-28T12:20:32.261Z,0.20
2018-09-28T12:23:01.024Z,0.10
2018-09-28T12:25:29.494Z,0.10
2018-09-28T12:27:58.110Z,0.20
2018-09-28T12:30:26.758Z,0.10
2018-09-28T12:32:55.758Z,0.17
2018-09-28T12:35:24.268Z,0.13
2018-09-28T12:37:52.934Z,0.10
2018-09-28T12:40:21.615Z,0.10
2018-09-28T12:42:50.272Z,0.20
2018-09-28T12:45:19.246Z,0.30
2018-09-28T12:47:47.686Z,0.20
2018-09-28T12:50:16.680Z,0.20
2018-09-28T12:52:45.197Z,0.20
2018-09-28T12:55:14.054Z,0.30
2018-09-28T12:57:42.765Z,0.10
2018-09-28T13:00:11.497Z,0.10
2018-09-28T13:02:40.092Z,0.20
2018-09-28T13:05:08.586Z,0.10
2018-09-28T13:07:37.329Z,0.20
2018-09-28T13:10:05.982Z,0.20
2018-09-28T13:12:35.604Z,0.30
2018-09-28T13:15:04.320Z,0.20
2018-09-28T13:17:32.916Z,0.20
2018-09-28T13:20:01.395Z,0.13
2018-09-28T13:22:30.051Z,0.10
2018-09-28T13:24:58.514Z,0.17
2018-09-28T13:27:27.087Z,0.20
2018-09-28T13:29:55.802Z,0.17
2018-09-28T13:32:24.414Z,0.00
2018-09-28T13:34:52.904Z,0.20
2018-09-28T13:37:21.530Z,0.23
2018-09-28T13:39:50.187Z,0.10
2018-09-28T13:42:18.784Z,0.10
2018-09-28T13:44:47.327Z,0.10
2018-09-28T13:47:16.224Z,0.20
2018-09-28T13:49:44.838Z,0.20
2018-09-28T13:52:13.698Z,0.20
2018-09-28T13:54:42.421Z,0.27
2018-09-28T13:57:11.636Z,0.20
2018-09-28T13:59:40.256Z,0.20
2018-09-28T14:02:08.943Z,0.00
2018-09-28T14:04:37.429Z,0.10
2018-09-28T14:07:06.082Z,0.10
2018-09-28T14:09:34.688Z,0.20
2018-09-28T14:12:03.277Z,0.10
2018-09-28T14:14:32.018Z,0.20
2018-09-28T14:17:00.542Z,0.10
2018-09-28T14:19:29.150Z,0.10
2018-09-28T14:21:57.704Z,0.10
2018-09-28T14:24:26.305Z,0.20
2018-09-28T14:26:54.982Z,0.10
2018-09-28T14:29:24.178Z,0.20
2018-09-28T14:31:52.894Z,0.20
2018-09-28T14:34:21.413Z,0.10
2018-09-28T14:36:50.161Z,0.10
2018-09-28T14:39:18.650Z,0.30
2018-09-28T14:41:47.354Z,0.10
2018-09-28T14:44:15.928Z,0.10
2018-09-28T14:46:44.623Z,0.40
2018-09-28T14:49:13.316Z,0.10
2018-09-28T14:51:41.943Z,0.10
2018-09-28T14:54:10.443Z,0.20
2018-09-28T14:56:38.915Z,0.20
2018-09-28T14:59:07.721Z,0.40
2018-09-28T15:01:36.274Z,0.10
2018-09-28T15:04:04.852Z,0.20
2018-09-28T15:06:34.276Z,0.10
2018-09-28T15:09:03.150Z,0.17
2018-09-28T15:11:32.339Z,0.20
2018-09-28T15:14:00.919Z,0.10
2018-09-28T15:16:29.705Z,0.20
2018-09-28T15:18:58.199Z,0.37
2018-09-28T15:21:26.742Z,0.10
2018-09-28T15:23:55.381Z,0.10
2018-09-28T15:26:24.053Z,0.10
2018-09-28T15:28:52.688Z,0.23
2018-09-28T15:31:21.310Z,0.10
2018-09-28T15:33:49.926Z,0.10
2018-09-28T15:36:18.534Z,0.30
2018-09-28T15:38:47.134Z,0.20
2018-09-28T15:41:15.647Z,0.20
2018-09-28T15:43:44.171Z,0.30
2018-09-28T15:46:12.806Z,0.13
2018-09-28T15:48:41.287Z,0.20
2018-09-28T15:51:09.925Z,0.20
2018-09-28T15:53:38.394Z,0.20
2018-09-28T15:56:07.549Z,0.30
2018-09-28T15:58:36.150Z,0.20
2018-09-28T16:01:04.860Z,0.20
2018-09-28T16:03:33.691Z,0.20
2018-09-28T16:06:02.409Z,0.30
2018-09-28T16:08:32.739Z,0.20
2018-09-28T16:11:02.611Z,0.43
2018-09-28T16:13:31.399Z,0.00
2018-09-28T16:15:59.951Z,0.17
2018-09-28T16:18:31.441Z,0.27
2018-09-28T16:21:00.126Z,0.20
2018-09-28T16:23:29.295Z,0.20
2018-09-28T16:25:57.890Z,0.10
2018-09-28T16:28:26.804Z,0.10
2018-09-28T16:30:55.290Z,0.33
2018-09-28T16:33:24.028Z,0.30
2018-09-28T16:35:52.641Z,0.20
2018-09-28T16:38:21.692Z,0.20
2018-09-28T16:40:50.502Z,0.30
2018-09-28T16:43:19.369Z,0.20
2018-09-28T16:45:48.009Z,0.10
2018-09-28T16:48:16.474Z,0.10
2018-09-28T16:50:45.141Z,0.20
2018-09-28T16:53:14.000Z,0.40
2018-09-28T16:55:42.785Z,0.20
2018-09-28T16:58:11.262Z,0.20
2018-09-28T17:00:39.802Z,0.20
2018-09-28T17:03:08.822Z,0.20
2018-09-28T17:05:37.419Z,0.27
2018-09-28T17:08:06.356Z,0.20
2018-09-28T17:10:34.953Z,0.20
2018-09-28T17:13:03.921Z,0.93
2018-09-28T17:15:32.549Z,0.60
2018-09-28T17:18:01.430Z,0.73
2018-09-28T17:20:30.065Z,1.60
2018-09-28T17:22:58.645Z,1.17
2018-09-28T17:25:27.813Z,0.80
2018-09-28T17:27:56.279Z,0.90
2018-09-28T17:30:25.314Z,1.30
2018-09-28T17:32:53.953Z,1.00
2018-09-28T17:35:22.934Z,0.40
2018-09-28T17:37:51.440Z,0.77
2018-09-28T17:40:23.183Z,0.30
2018-09-28T17:42:51.702Z,0.10
2018-09-28T17:45:20.495Z,0.20
2018-09-28T17:47:49.138Z,0.20
2018-09-28T17:50:17.694Z,0.30
2018-09-28T17:52:46.238Z,0.30
2018-09-28T17:55:14.885Z,0.30
2018-09-28T17:57:44.081Z,0.70
2018-09-28T18:00:14.421Z,0.60
2018-09-28T18:02:43.296Z,0.50
2018-09-28T18:05:11.878Z,0.90
2018-09-28T18:07:40.768Z,0.70
2018-09-28T18:10:09.352Z,1.00
2018-09-28T18:12:38.110Z,0.70
2018-09-28T18:15:06.827Z,0.47
2018-09-28T18:17:35.468Z,0.43
2018-09-28T18:20:04.394Z,0.40
2018-09-28T18:22:32.947Z,0.30
2018-09-28T18:25:01.607Z,0.97
2018-09-28T18:27:32.230Z,0.80
2018-09-28T18:30:00.958Z,0.90
2018-09-28T18:32:29.566Z,0.33
2018-09-28T18:34:58.384Z,0.30
2018-09-28T18:37:26.931Z,0.20
2018-09-28T18:39:55.698Z,0.13
2018-09-28T18:42:24.854Z,0.20
2018-09-28T18:44:53.630Z,0.30
2018-09-28T18:47:22.294Z,0.30
2018-09-28T18:49:51.120Z,0.30
2018-09-28T18:52:21.006Z,0.30
2018-09-28T18:54:49.682Z,1.70
2018-09-28T18:57:19.890Z,0.53
2018-09-28T18:59:48.537Z,0.40
2018-09-28T19:02:17.663Z,0.47
2018-09-28T19:04:47.083Z,0.30
2018-09-28T19:07:17.109Z,0.20
2018-09-28T19:09:45.602Z,0.30
2018-09-28T19:12:14.483Z,0.30
2018-09-28T19:14:42.947Z,0.27
2018-09-28T19:17:11.666Z,0.17
2018-09-28T19:19:40.238Z,0.20
2018-09-28T19:22:08.814Z,0.17
2018-09-28T19:24:37.373Z,0.20
2018-09-28T19:27:05.969Z,0.20
2018-09-28T19:29:34.802Z,0.70
2018-09-28T19:32:03.750Z,0.50
2018-09-28T19:34:33.256Z,0.40
2018-09-28T19:37:01.750Z,0.30
2018-09-28T19:39:30.515Z,0.30
2018-09-28T19:41:59.194Z,0.40
2018-09-28T19:44:27.648Z,0.10
2018-09-28T19:46:56.318Z,0.20
2018-09-28T19:49:27.764Z,0.20
2018-09-28T19:51:56.366Z,0.10
2018-09-28T19:54:24.924Z,0.20
2018-09-28T19:56:54.220Z,0.30
2018-09-28T19:59:22.674Z,0.20
2018-09-28T20:01:51.942Z,0.10
2018-09-28T20:04:20.410Z,0.30
2018-09-28T20:06:49.256Z,0.10
2018-09-28T20:09:17.917Z,0.27
2018-09-28T20:11:46.418Z,0.20
2018-09-28T20:14:14.901Z,0.30
2018-09-28T20:16:43.591Z,0.30
2018-09-28T20:19:12.467Z,0.23
2018-09-28T20:21:40.938Z,0.20
2018-09-28T20:24:09.985Z,0.30
2018-09-28T20:26:41.486Z,0.40
2018-09-28T20:29:10.196Z,0.20
2018-09-28T20:31:38.746Z,0.20
2018-09-28T20:34:07.470Z,0.30
2018-09-28T20:36:36.057Z,0.20
2018-09-28T20:39:07.395Z,0.30
2018-09-28T20:41:36.052Z,0.30
2018-09-28T20:44:04.689Z,0.30
2018-09-28T20:46:33.202Z,0.40
2018-09-28T20:49:01.754Z,0.47
2018-09-28T20:51:30.670Z,0.80
2018-09-28T20:53:59.707Z,1.10
2018-09-28T20:56:28.386Z,0.80
2018-09-28T20:58:57.050Z,0.90
2018-09-28T21:01:25.807Z,1.43
2018-09-28T21:03:54.326Z,2.07
2018-09-28T21:06:22.869Z,0.67
2018-09-28T21:08:51.394Z,0.40
2018-09-28T21:11:19.862Z,0.30
2018-09-28T21:13:48.722Z,0.50
2018-09-28T21:16:17.233Z,0.40
2018-09-28T21:18:45.879Z,0.50
2018-09-28T21:21:14.386Z,0.57
2018-09-28T21:23:42.922Z,0.57
2018-09-28T21:26:11.369Z,0.50
2018-09-28T21:28:39.890Z,0.40
2018-09-28T21:31:08.796Z,0.20
2018-09-28T21:36:12.345Z,0.30
2018-09-28T21:38:41.606Z,0.30
2018-09-28T21:41:10.167Z,0.40
2018-09-28T21:43:38.755Z,0.60
2018-09-28T21:46:07.306Z,0.40
2018-09-28T21:48:35.810Z,0.40
2018-09-28T21:51:04.562Z,0.57
2018-09-28T21:53:33.245Z,0.43
2018-09-28T21:56:01.812Z,0.30
2018-09-28T21:58:30.322Z,0.40
2018-09-28T22:00:58.925Z,0.40
2018-09-28T22:03:27.410Z,0.60
2018-09-28T22:05:55.966Z,0.30
2018-09-28T22:08:24.988Z,0.30
2018-09-28T22:10:53.546Z,0.40
2018-09-28T22:13:22.206Z,0.40
2018-09-28T22:15:50.818Z,0.43
2018-09-28T22:18:19.401Z,0.30
2018-09-28T22:20:47.941Z,0.50
2018-09-28T22:23:16.402Z,0.50
2018-09-28T22:25:45.131Z,0.40
2018-09-28T22:28:13.630Z,0.20
2018-09-28T22:30:42.130Z,0.43
2018-09-28T22:33:11.250Z,0.30
2018-09-28T22:35:39.962Z,0.23
2018-09-28T22:38:08.490Z,0.30
2018-09-28T22:40:37.798Z,0.47
2018-09-28T22:43:06.682Z,0.40
2018-09-28T22:45:35.323Z,0.30
2018-09-28T22:48:04.014Z,0.33
2018-09-28T22:50:32.513Z,0.40
2018-09-28T22:53:01.286Z,0.40
2018-09-28T22:55:29.826Z,0.40
2018-09-28T22:57:58.350Z,0.33
2018-09-28T23:00:26.820Z,0.30
2018-09-28T23:02:55.300Z,0.60
2018-09-28T23:05:24.030Z,0.30
2018-09-28T23:07:52.582Z,0.30
2018-09-28T23:10:21.312Z,0.50
2018-09-28T23:12:49.781Z,0.30
2018-09-28T23:15:18.287Z,0.30
2018-09-28T23:17:46.854Z,0.30
2018-09-28T23:20:15.400Z,0.40
2018-09-28T23:22:44.074Z,0.40
2018-09-28T23:25:12.582Z,0.30
2018-09-28T23:27:41.340Z,0.43
2018-09-28T23:30:09.789Z,0.40
2018-09-28T23:32:38.449Z,0.30
2018-09-28T23:35:07.048Z,0.30
2018-09-28T23:37:35.613Z,0.30
2018-09-28T23:40:04.342Z,0.30
2018-09-28T23:42:32.972Z,0.30
2018-09-28T23:45:01.736Z,0.40
2018-09-28T23:47:30.406Z,0.20
2018-09-28T23:49:59.128Z,0.20
2018-09-28T23:52:27.588Z,0.53
2018-09-28T23:54:56.082Z,0.30
2018-09-28T23:57:24.591Z,0.57
2018-09-28T23:59:53.035Z,0.20
